Alt de Magueyes, Puerto Rico
Current Conditions -  °F | °C
As of 7:50 PM on Thursday 30 Oct 2014 (Local Time) from TJBQ Reporting Station
Thunderstorm Thunderstorm  
Wind Chill: 79°   Ceiling: 7000
Heat Index: 82°   Visibility: 10mi
Dew Point: 75°   Wind: 0mph
Humidity: 89%   Direction: NA
Pressure: 29.84"   Gusts: NA
Location:  17.9715°N, 66.9368°W
Report Text: TJBQ 302350Z 00000KT 10SM VCTS SCT030 BKN070 26/24 A2984 RMK LTG DSNT E AND SW- RWY08 ATIS F
Loading
Personal Weather Stations






























Interactive Weather Map
Tropical Storm Tracking
New forecast layout! Learn more

10-Day Weather Forecast

Advertisements
Track Severe Weather on mobile